Terminal Aerodrome Forecast
Issued by NWS

Home | Current Version | Previous Version | Text Only | Print | Product List | Glossary On
Versions: 1 2 3 4 5 6 7 8 9 10 11 12 13 14 15 16 17 18 19 20 21 22 23 24
000
FTUS45 KREV 021720
TAFRNO
TAF
KRNO 021720Z 0218/0318 22010G20KT P6SM SCT220
     FM022100 26020G32KT P6SM FEW120 SCT200
     FM030200 29014G24KT P6SM SCT150
     FM030700 VRB03KT P6SM SKC
     FM031700 22006KT P6SM SKC=

USA.gov is the U.S. government's official web portal to all federal, state and local government web resources and services.